sensor_id;sensor_type;location;lat;lon;timestamp;temperature;humidity
17128;DHT22;8679;50.842;4.322;2023-03-21T00:02:08;10.70;99.90
17128;DHT22;8679;50.842;4.322;2023-03-21T00:04:36;10.70;99.90
17128;DHT22;8679;50.842;4.322;2023-03-21T00:07:02;10.70;99.90
17128;DHT22;8679;50.842;4.322;2023-03-21T00:09:27;10.70;99.90
17128;DHT22;8679;50.842;4.322;2023-03-21T00:11:53;10.80;99.90
17128;DHT22;8679;50.842;4.322;2023-03-21T00:14:25;10.80;99.90
17128;DHT22;8679;50.842;4.322;2023-03-21T00:16:57;10.80;99.90
17128;DHT22;8679;50.842;4.322;2023-03-21T00:19:23;10.70;99.90
17128;DHT22;8679;50.842;4.322;2023-03-21T00:21:51;10.70;99.90
17128;DHT22;8679;50.842;4.322;2023-03-21T00:24:17;10.70;99.90
17128;DHT22;8679;50.842;4.322;2023-03-21T00:26:43;10.70;99.90
17128;DHT22;8679;50.842;4.322;2023-03-21T00:29:09;10.80;99.90
17128;DHT22;8679;50.842;4.322;2023-03-21T00:31:34;10.70;99.90
17128;DHT22;8679;50.842;4.322;2023-03-21T00:34:00;10.80;99.90
17128;DHT22;8679;50.842;4.322;2023-03-21T00:36:26;10.80;99.90
17128;DHT22;8679;50.842;4.322;2023-03-21T00:38:52;10.80;99.90
17128;DHT22;8679;50.842;4.322;2023-03-21T00:41:18;10.80;99.90
17128;DHT22;8679;50.842;4.322;2023-03-21T00:43:44;10.80;99.90
17128;DHT22;8679;50.842;4.322;2023-03-21T00:46:12;10.80;99.90
17128;DHT22;8679;50.842;4.322;2023-03-21T00:48:38;10.80;99.90
17128;DHT22;8679;50.842;4.322;2023-03-21T00:51:12;10.80;99.90
17128;DHT22;8679;50.842;4.322;2023-03-21T00:53:40;10.80;99.90
17128;DHT22;8679;50.842;4.322;2023-03-21T00:56:06;10.80;99.90
17128;DHT22;8679;50.842;4.322;2023-03-21T00:58:32;10.80;99.90
17128;DHT22;8679;50.842;4.322;2023-03-21T01:00:57;10.80;99.90
17128;DHT22;8679;50.842;4.322;2023-03-21T01:03:23;10.80;99.90
17128;DHT22;8679;50.842;4.322;2023-03-21T01:05:51;10.80;99.90
17128;DHT22;8679;50.842;4.322;2023-03-21T01:08:36;10.80;99.90
17128;DHT22;8679;50.842;4.322;2023-03-21T01:11:06;10.80;99.90
17128;DHT22;8679;50.842;4.322;2023-03-21T01:13:32;10.80;99.90
17128;DHT22;8679;50.842;4.322;2023-03-21T01:15:58;10.90;99.90
17128;DHT22;8679;50.842;4.322;2023-03-21T01:18:27;10.90;99.90
17128;DHT22;8679;50.842;4.322;2023-03-21T01:20:55;10.80;99.90
17128;DHT22;8679;50.842;4.322;2023-03-21T01:23:25;10.80;99.90
17128;DHT22;8679;50.842;4.322;2023-03-21T01:25:52;10.80;99.90
17128;DHT22;8679;50.842;4.322;2023-03-21T01:28:18;10.80;99.90
17128;DHT22;8679;50.842;4.322;2023-03-21T01:30:45;10.80;99.90
17128;DHT22;8679;50.842;4.322;2023-03-21T01:33:12;10.80;99.90
17128;DHT22;8679;50.842;4.322;2023-03-21T01:35:38;10.80;99.90
17128;DHT22;8679;50.842;4.322;2023-03-21T01:38:03;10.80;99.90
17128;DHT22;8679;50.842;4.322;2023-03-21T01:40:29;10.80;99.90
17128;DHT22;8679;50.842;4.322;2023-03-21T01:42:55;10.80;99.90
17128;DHT22;8679;50.842;4.322;2023-03-21T01:48:26;10.90;99.90
17128;DHT22;8679;50.842;4.322;2023-03-21T01:50:53;10.80;99.90
17128;DHT22;8679;50.842;4.322;2023-03-21T01:53:21;10.80;99.90
17128;DHT22;8679;50.842;4.322;2023-03-21T01:55:48;10.90;99.90
17128;DHT22;8679;50.842;4.322;2023-03-21T01:58:15;10.90;99.90
17128;DHT22;8679;50.842;4.322;2023-03-21T02:00:46;11.00;99.90
17128;DHT22;8679;50.842;4.322;2023-03-21T02:03:12;11.00;99.90
17128;DHT22;8679;50.842;4.322;2023-03-21T02:05:59;11.00;99.90
17128;DHT22;8679;50.842;4.322;2023-03-21T02:08:27;11.00;99.90
17128;DHT22;8679;50.842;4.322;2023-03-21T02:10:53;11.00;99.90
17128;DHT22;8679;50.842;4.322;2023-03-21T02:13:19;11.00;99.90
17128;DHT22;8679;50.842;4.322;2023-03-21T02:15:59;11.00;99.90
17128;DHT22;8679;50.842;4.322;2023-03-21T02:19:03;11.00;99.90
17128;DHT22;8679;50.842;4.322;2023-03-21T02:27:22;11.00;99.90
17128;DHT22;8679;50.842;4.322;2023-03-21T02:30:25;11.00;99.90
17128;DHT22;8679;50.842;4.322;2023-03-21T02:38:51;11.10;99.90
17128;DHT22;8679;50.842;4.322;2023-03-21T02:41:44;11.10;99.90
17128;DHT22;8679;50.842;4.322;2023-03-21T02:46:51;11.20;99.90
17128;DHT22;8679;50.842;4.322;2023-03-21T02:49:25;11.10;99.90
17128;DHT22;8679;50.842;4.322;2023-03-21T02:51:52;11.10;99.90
17128;DHT22;8679;50.842;4.322;2023-03-21T02:54:22;11.10;99.90
17128;DHT22;8679;50.842;4.322;2023-03-21T02:56:50;11.10;99.90
17128;DHT22;8679;50.842;4.322;2023-03-21T02:59:18;11.20;99.90
17128;DHT22;8679;50.842;4.322;2023-03-21T03:01:45;11.20;99.90
17128;DHT22;8679;50.842;4.322;2023-03-21T03:04:25;11.10;99.90
17128;DHT22;8679;50.842;4.322;2023-03-21T03:12:05;11.20;99.90
17128;DHT22;8679;50.842;4.322;2023-03-21T03:17:49;11.20;99.90
17128;DHT22;8679;50.842;4.322;2023-03-21T03:20:23;11.20;99.90
17128;DHT22;8679;50.842;4.322;2023-03-21T03:23:10;11.30;99.90
17128;DHT22;8679;50.842;4.322;2023-03-21T03:25:55;11.30;99.90
17128;DHT22;8679;50.842;4.322;2023-03-21T03:28:29;11.30;99.90
17128;DHT22;8679;50.842;4.322;2023-03-21T03:30:57;11.20;99.90
17128;DHT22;8679;50.842;4.322;2023-03-21T03:33:24;11.30;99.90
17128;DHT22;8679;50.842;4.322;2023-03-21T03:35:52;11.30;99.90
17128;DHT22;8679;50.842;4.322;2023-03-21T03:38:21;11.40;99.90
17128;DHT22;8679;50.842;4.322;2023-03-21T03:40:52;11.50;99.90
17128;DHT22;8679;50.842;4.322;2023-03-21T03:43:22;11.40;99.90
17128;DHT22;8679;50.842;4.322;2023-03-21T03:45:59;11.50;99.90
17128;DHT22;8679;50.842;4.322;2023-03-21T03:48:36;11.50;99.90
17128;DHT22;8679;50.842;4.322;2023-03-21T03:51:24;11.40;99.90
17128;DHT22;8679;50.842;4.322;2023-03-21T03:53:57;11.50;99.90
17128;DHT22;8679;50.842;4.322;2023-03-21T03:56:25;11.50;99.90
17128;DHT22;8679;50.842;4.322;2023-03-21T03:58:51;11.50;99.90
17128;DHT22;8679;50.842;4.322;2023-03-21T04:01:17;11.50;99.90
17128;DHT22;8679;50.842;4.322;2023-03-21T04:03:46;11.50;99.90
17128;DHT22;8679;50.842;4.322;2023-03-21T04:06:13;11.50;99.90
17128;DHT22;8679;50.842;4.322;2023-03-21T04:08:39;11.50;99.90
17128;DHT22;8679;50.842;4.322;2023-03-21T04:11:05;11.50;99.90
17128;DHT22;8679;50.842;4.322;2023-03-21T04:13:32;11.50;99.90
17128;DHT22;8679;50.842;4.322;2023-03-21T04:15:58;11.60;99.90
17128;DHT22;8679;50.842;4.322;2023-03-21T04:18:24;11.60;99.90
17128;DHT22;8679;50.842;4.322;2023-03-21T04:20:50;11.60;99.90
17128;DHT22;8679;50.842;4.322;2023-03-21T04:23:18;11.60;99.90
17128;DHT22;8679;50.842;4.322;2023-03-21T04:25:44;11.60;99.90
17128;DHT22;8679;50.842;4.322;2023-03-21T04:28:11;11.60;99.90
17128;DHT22;8679;50.842;4.322;2023-03-21T04:30:36;11.60;99.90
17128;DHT22;8679;50.842;4.322;2023-03-21T04:33:03;11.50;99.90
17128;DHT22;8679;50.842;4.322;2023-03-21T04:35:29;11.60;99.90
17128;DHT22;8679;50.842;4.322;2023-03-21T04:37:55;11.60;99.90
17128;DHT22;8679;50.842;4.322;2023-03-21T04:40:21;11.60;99.90
17128;DHT22;8679;50.842;4.322;2023-03-21T04:42:47;11.60;99.90
17128;DHT22;8679;50.842;4.322;2023-03-21T04:45:14;11.70;99.90
17128;DHT22;8679;50.842;4.322;2023-03-21T04:47:40;11.70;99.90
17128;DHT22;8679;50.842;4.322;2023-03-21T04:50:06;11.60;99.90
17128;DHT22;8679;50.842;4.322;2023-03-21T04:52:32;11.60;99.90
17128;DHT22;8679;50.842;4.322;2023-03-21T04:54:57;11.60;99.90
17128;DHT22;8679;50.842;4.322;2023-03-21T04:57:23;11.60;99.90
17128;DHT22;8679;50.842;4.322;2023-03-21T04:59:49;11.60;99.90
17128;DHT22;8679;50.842;4.322;2023-03-21T05:02:14;11.60;99.90
17128;DHT22;8679;50.842;4.322;2023-03-21T05:04:40;11.60;99.90
17128;DHT22;8679;50.842;4.322;2023-03-21T05:07:07;11.60;99.90
17128;DHT22;8679;50.842;4.322;2023-03-21T05:09:32;11.70;99.90
17128;DHT22;8679;50.842;4.322;2023-03-21T05:11:58;11.60;99.90
17128;DHT22;8679;50.842;4.322;2023-03-21T05:14:25;11.70;99.90
17128;DHT22;8679;50.842;4.322;2023-03-21T05:16:52;11.60;99.90
17128;DHT22;8679;50.842;4.322;2023-03-21T05:19:26;11.70;99.90
17128;DHT22;8679;50.842;4.322;2023-03-21T05:22:08;11.60;99.90
17128;DHT22;8679;50.842;4.322;2023-03-21T05:24:35;11.60;99.90
17128;DHT22;8679;50.842;4.322;2023-03-21T05:27:06;11.70;99.90
17128;DHT22;8679;50.842;4.322;2023-03-21T05:29:33;11.60;99.90
17128;DHT22;8679;50.842;4.322;2023-03-21T05:31:59;11.60;99.90
17128;DHT22;8679;50.842;4.322;2023-03-21T05:34:26;11.70;99.90
17128;DHT22;8679;50.842;4.322;2023-03-21T05:36:52;11.70;99.90
17128;DHT22;8679;50.842;4.322;2023-03-21T05:39:18;11.70;99.90
17128;DHT22;8679;50.842;4.322;2023-03-21T05:41:44;11.70;99.90
17128;DHT22;8679;50.842;4.322;2023-03-21T05:44:09;11.70;99.90
17128;DHT22;8679;50.842;4.322;2023-03-21T05:46:35;11.70;99.90
17128;DHT22;8679;50.842;4.322;2023-03-21T05:49:00;11.70;99.90
17128;DHT22;8679;50.842;4.322;2023-03-21T05:51:26;11.70;99.90
17128;DHT22;8679;50.842;4.322;2023-03-21T05:53:52;11.70;99.90
17128;DHT22;8679;50.842;4.322;2023-03-21T05:56:18;11.60;99.90
17128;DHT22;8679;50.842;4.322;2023-03-21T05:58:43;11.60;99.90
17128;DHT22;8679;50.842;4.322;2023-03-21T06:01:09;11.50;99.90
17128;DHT22;8679;50.842;4.322;2023-03-21T06:03:35;11.50;99.90
17128;DHT22;8679;50.842;4.322;2023-03-21T06:06:01;11.40;99.90
17128;DHT22;8679;50.842;4.322;2023-03-21T06:08:28;11.40;99.90
17128;DHT22;8679;50.842;4.322;2023-03-21T06:10:54;11.30;99.90
17128;DHT22;8679;50.842;4.322;2023-03-21T06:13:20;11.30;99.90
17128;DHT22;8679;50.842;4.322;2023-03-21T06:15:46;11.30;99.90
17128;DHT22;8679;50.842;4.322;2023-03-21T06:18:12;11.30;99.90
17128;DHT22;8679;50.842;4.322;2023-03-21T06:20:37;11.20;99.90
17128;DHT22;8679;50.842;4.322;2023-03-21T06:23:03;11.20;99.90
17128;DHT22;8679;50.842;4.322;2023-03-21T06:25:29;11.10;99.90
17128;DHT22;8679;50.842;4.322;2023-03-21T06:27:55;11.10;99.90
17128;DHT22;8679;50.842;4.322;2023-03-21T06:30:20;11.10;99.90
17128;DHT22;8679;50.842;4.322;2023-03-21T06:32:46;11.10;99.90
17128;DHT22;8679;50.842;4.322;2023-03-21T06:35:11;11.10;99.90
17128;DHT22;8679;50.842;4.322;2023-03-21T06:37:37;11.20;99.90
17128;DHT22;8679;50.842;4.322;2023-03-21T06:40:03;11.20;99.90
17128;DHT22;8679;50.842;4.322;2023-03-21T06:42:30;11.10;99.90
17128;DHT22;8679;50.842;4.322;2023-03-21T06:44:57;11.10;99.90
17128;DHT22;8679;50.842;4.322;2023-03-21T06:47:22;11.10;99.90
17128;DHT22;8679;50.842;4.322;2023-03-21T06:49:48;11.10;99.90
17128;DHT22;8679;50.842;4.322;2023-03-21T06:52:13;11.10;99.90
17128;DHT22;8679;50.842;4.322;2023-03-21T06:54:39;11.10;99.90
17128;DHT22;8679;50.842;4.322;2023-03-21T06:57:05;11.10;99.90
17128;DHT22;8679;50.842;4.322;2023-03-21T06:59:31;11.20;99.90
17128;DHT22;8679;50.842;4.322;2023-03-21T07:01:56;11.20;99.90
17128;DHT22;8679;50.842;4.322;2023-03-21T07:04:22;11.20;99.90
17128;DHT22;8679;50.842;4.322;2023-03-21T07:06:48;11.20;99.90
17128;DHT22;8679;50.842;4.322;2023-03-21T07:09:14;11.20;99.90
17128;DHT22;8679;50.842;4.322;2023-03-21T07:11:42;11.20;99.90
17128;DHT22;8679;50.842;4.322;2023-03-21T07:14:07;11.20;99.90
17128;DHT22;8679;50.842;4.322;2023-03-21T07:16:33;11.20;99.90
17128;DHT22;8679;50.842;4.322;2023-03-21T07:18:59;11.20;99.90
17128;DHT22;8679;50.842;4.322;2023-03-21T07:21:25;11.30;99.90
17128;DHT22;8679;50.842;4.322;2023-03-21T07:23:50;11.30;99.90
17128;DHT22;8679;50.842;4.322;2023-03-21T07:26:16;11.40;99.90
17128;DHT22;8679;50.842;4.322;2023-03-21T07:28:43;11.40;99.90
17128;DHT22;8679;50.842;4.322;2023-03-21T07:31:13;11.40;99.90
17128;DHT22;8679;50.842;4.322;2023-03-21T07:33:38;11.40;99.90
17128;DHT22;8679;50.842;4.322;2023-03-21T07:36:09;11.40;99.90
17128;DHT22;8679;50.842;4.322;2023-03-21T07:38:36;11.40;99.90
17128;DHT22;8679;50.842;4.322;2023-03-21T07:41:02;11.50;99.90
17128;DHT22;8679;50.842;4.322;2023-03-21T07:43:28;11.50;99.90
17128;DHT22;8679;50.842;4.322;2023-03-21T07:45:57;11.50;99.90
17128;DHT22;8679;50.842;4.322;2023-03-21T07:48:23;11.50;99.90
17128;DHT22;8679;50.842;4.322;2023-03-21T07:50:48;11.50;99.90
17128;DHT22;8679;50.842;4.322;2023-03-21T07:53:14;11.50;99.90
17128;DHT22;8679;50.842;4.322;2023-03-21T07:55:40;11.50;99.90
17128;DHT22;8679;50.842;4.322;2023-03-21T07:58:06;11.50;99.90
17128;DHT22;8679;50.842;4.322;2023-03-21T08:00:31;11.50;99.90
17128;DHT22;8679;50.842;4.322;2023-03-21T08:02:58;11.50;99.90
17128;DHT22;8679;50.842;4.322;2023-03-21T08:05:29;11.60;99.90
17128;DHT22;8679;50.842;4.322;2023-03-21T08:07:56;11.60;99.90
17128;DHT22;8679;50.842;4.322;2023-03-21T08:10:22;11.70;99.90
17128;DHT22;8679;50.842;4.322;2023-03-21T08:12:47;11.70;99.90
17128;DHT22;8679;50.842;4.322;2023-03-21T08:15:14;11.70;99.90
17128;DHT22;8679;50.842;4.322;2023-03-21T08:17:41;11.70;99.90
17128;DHT22;8679;50.842;4.322;2023-03-21T08:20:14;11.70;99.90
17128;DHT22;8679;50.842;4.322;2023-03-21T08:22:41;11.80;99.90
17128;DHT22;8679;50.842;4.322;2023-03-21T08:25:08;11.80;99.90
17128;DHT22;8679;50.842;4.322;2023-03-21T08:27:35;11.90;99.90
17128;DHT22;8679;50.842;4.322;2023-03-21T08:30:01;11.90;99.90
17128;DHT22;8679;50.842;4.322;2023-03-21T08:32:27;12.00;99.90
17128;DHT22;8679;50.842;4.322;2023-03-21T08:34:58;12.00;99.90
17128;DHT22;8679;50.842;4.322;2023-03-21T08:37:24;12.10;99.90
17128;DHT22;8679;50.842;4.322;2023-03-21T08:39:50;12.10;99.90
17128;DHT22;8679;50.842;4.322;2023-03-21T08:42:16;12.20;99.90
17128;DHT22;8679;50.842;4.322;2023-03-21T08:44:42;12.20;99.90
17128;DHT22;8679;50.842;4.322;2023-03-21T08:47:07;12.30;99.90
17128;DHT22;8679;50.842;4.322;2023-03-21T08:49:36;12.30;99.90
17128;DHT22;8679;50.842;4.322;2023-03-21T08:52:02;12.30;99.90
17128;DHT22;8679;50.842;4.322;2023-03-21T08:54:28;12.40;99.90
17128;DHT22;8679;50.842;4.322;2023-03-21T08:56:54;12.50;99.90
17128;DHT22;8679;50.842;4.322;2023-03-21T08:59:20;12.60;99.90
17128;DHT22;8679;50.842;4.322;2023-03-21T09:01:45;12.60;99.90
17128;DHT22;8679;50.842;4.322;2023-03-21T09:04:11;12.60;99.90
17128;DHT22;8679;50.842;4.322;2023-03-21T09:06:38;12.70;99.90
17128;DHT22;8679;50.842;4.322;2023-03-21T09:09:05;12.70;99.90
17128;DHT22;8679;50.842;4.322;2023-03-21T09:11:33;12.80;99.90
17128;DHT22;8679;50.842;4.322;2023-03-21T09:14:00;12.70;99.90
17128;DHT22;8679;50.842;4.322;2023-03-21T09:16:26;12.70;99.90
17128;DHT22;8679;50.842;4.322;2023-03-21T09:18:52;12.60;99.90
17128;DHT22;8679;50.842;4.322;2023-03-21T09:21:22;12.60;99.90
17128;DHT22;8679;50.842;4.322;2023-03-21T09:23:49;12.60;99.90
17128;DHT22;8679;50.842;4.322;2023-03-21T09:26:18;12.50;99.90
17128;DHT22;8679;50.842;4.322;2023-03-21T09:28:44;12.50;99.90
17128;DHT22;8679;50.842;4.322;2023-03-21T09:31:11;12.60;99.90
17128;DHT22;8679;50.842;4.322;2023-03-21T09:33:39;12.60;99.90
17128;DHT22;8679;50.842;4.322;2023-03-21T09:36:07;12.70;99.90
17128;DHT22;8679;50.842;4.322;2023-03-21T09:38:42;12.80;99.90
17128;DHT22;8679;50.842;4.322;2023-03-21T09:49:44;12.90;99.90
17128;DHT22;8679;50.842;4.322;2023-03-21T09:53:07;12.90;99.90
17128;DHT22;8679;50.842;4.322;2023-03-21T09:55:18;12.90;99.90
17128;DHT22;8679;50.842;4.322;2023-03-21T10:01:17;13.00;99.90
17128;DHT22;8679;50.842;4.322;2023-03-21T10:04:06;12.90;99.90
17128;DHT22;8679;50.842;4.322;2023-03-21T10:06:37;13.00;99.90
17128;DHT22;8679;50.842;4.322;2023-03-21T10:09:16;13.00;99.90
17128;DHT22;8679;50.842;4.322;2023-03-21T10:12:04;13.00;99.90
17128;DHT22;8679;50.842;4.322;2023-03-21T10:14:43;13.10;99.90
17128;DHT22;8679;50.842;4.322;2023-03-21T10:17:33;13.00;99.90
17128;DHT22;8679;50.842;4.322;2023-03-21T10:20:30;13.10;99.90
17128;DHT22;8679;50.842;4.322;2023-03-21T10:22:59;13.10;99.90
17128;DHT22;8679;50.842;4.322;2023-03-21T10:25:34;13.20;99.90
17128;DHT22;8679;50.842;4.322;2023-03-21T10:28:02;13.30;99.90
17128;DHT22;8679;50.842;4.322;2023-03-21T10:33:11;13.40;99.90
17128;DHT22;8679;50.842;4.322;2023-03-21T10:35:38;13.50;99.90
17128;DHT22;8679;50.842;4.322;2023-03-21T10:38:12;13.60;99.90
17128;DHT22;8679;50.842;4.322;2023-03-21T10:40:39;13.60;99.90
17128;DHT22;8679;50.842;4.322;2023-03-21T10:43:38;13.60;99.90
17128;DHT22;8679;50.842;4.322;2023-03-21T10:46:15;13.70;99.90
17128;DHT22;8679;50.842;4.322;2023-03-21T10:48:42;13.80;99.90
17128;DHT22;8679;50.842;4.322;2023-03-21T10:51:16;13.80;99.90
17128;DHT22;8679;50.842;4.322;2023-03-21T10:54:07;13.80;99.90
17128;DHT22;8679;50.842;4.322;2023-03-21T10:56:39;13.80;99.90
17128;DHT22;8679;50.842;4.322;2023-03-21T10:59:09;14.00;99.90
17128;DHT22;8679;50.842;4.322;2023-03-21T11:01:42;14.10;99.90
17128;DHT22;8679;50.842;4.322;2023-03-21T11:04:15;14.20;99.90
17128;DHT22;8679;50.842;4.322;2023-03-21T11:06:44;14.10;99.90
17128;DHT22;8679;50.842;4.322;2023-03-21T11:09:16;14.00;99.90
17128;DHT22;8679;50.842;4.322;2023-03-21T11:12:00;13.90;99.90
17128;DHT22;8679;50.842;4.322;2023-03-21T11:14:46;13.80;99.90
17128;DHT22;8679;50.842;4.322;2023-03-21T11:17:27;13.70;99.90
17128;DHT22;8679;50.842;4.322;2023-03-21T11:19:57;13.80;99.90
17128;DHT22;8679;50.842;4.322;2023-03-21T11:22:28;13.70;99.90
17128;DHT22;8679;50.842;4.322;2023-03-21T11:25:00;13.80;99.90
17128;DHT22;8679;50.842;4.322;2023-03-21T11:27:27;13.80;99.90
17128;DHT22;8679;50.842;4.322;2023-03-21T11:29:56;13.90;99.90
17128;DHT22;8679;50.842;4.322;2023-03-21T11:32:40;13.90;99.90
17128;DHT22;8679;50.842;4.322;2023-03-21T11:35:13;13.90;99.90
17128;DHT22;8679;50.842;4.322;2023-03-21T11:37:42;14.10;99.90
17128;DHT22;8679;50.842;4.322;2023-03-21T11:45:22;14.20;99.90
17128;DHT22;8679;50.842;4.322;2023-03-21T11:47:50;14.30;99.90
17128;DHT22;8679;50.842;4.322;2023-03-21T11:50:20;14.30;99.90
17128;DHT22;8679;50.842;4.322;2023-03-21T11:55:39;14.30;99.90
17128;DHT22;8679;50.842;4.322;2023-03-21T11:58:33;14.10;99.90
17128;DHT22;8679;50.842;4.322;2023-03-21T12:01:30;14.20;99.90
17128;DHT22;8679;50.842;4.322;2023-03-21T12:04:16;14.30;99.90
17128;DHT22;8679;50.842;4.322;2023-03-21T12:06:57;14.40;99.90
17128;DHT22;8679;50.842;4.322;2023-03-21T12:09:36;14.50;99.90
17128;DHT22;8679;50.842;4.322;2023-03-21T12:12:12;14.30;99.90
17128;DHT22;8679;50.842;4.322;2023-03-21T12:15:19;14.20;99.90
17128;DHT22;8679;50.842;4.322;2023-03-21T12:26:25;14.20;99.90
17128;DHT22;8679;50.842;4.322;2023-03-21T12:29:18;14.30;99.90
17128;DHT22;8679;50.842;4.322;2023-03-21T12:40:11;14.10;99.90
17128;DHT22;8679;50.842;4.322;2023-03-21T12:45:20;14.30;99.90
17128;DHT22;8679;50.842;4.322;2023-03-21T12:47:51;14.40;99.90
17128;DHT22;8679;50.842;4.322;2023-03-21T12:52:55;14.40;99.90
17128;DHT22;8679;50.842;4.322;2023-03-21T12:55:27;14.50;99.90
17128;DHT22;8679;50.842;4.322;2023-03-21T12:58:10;14.60;99.90
17128;DHT22;8679;50.842;4.322;2023-03-21T13:03:19;14.80;99.90
17128;DHT22;8679;50.842;4.322;2023-03-21T13:06:05;14.80;99.90
17128;DHT22;8679;50.842;4.322;2023-03-21T13:08:45;14.80;99.90
17128;DHT22;8679;50.842;4.322;2023-03-21T13:11:17;14.70;99.90
17128;DHT22;8679;50.842;4.322;2023-03-21T13:19:49;14.80;99.90
17128;DHT22;8679;50.842;4.322;2023-03-21T13:24:57;14.90;99.90
17128;DHT22;8679;50.842;4.322;2023-03-21T13:29:51;14.80;99.90
17128;DHT22;8679;50.842;4.322;2023-03-21T13:32:37;14.90;99.90
17128;DHT22;8679;50.842;4.322;2023-03-21T13:35:23;15.00;99.90
17128;DHT22;8679;50.842;4.322;2023-03-21T13:38:01;15.10;99.90
17128;DHT22;8679;50.842;4.322;2023-03-21T13:40:35;15.10;99.90
17128;DHT22;8679;50.842;4.322;2023-03-21T13:43:01;15.00;99.90
17128;DHT22;8679;50.842;4.322;2023-03-21T13:46:13;15.10;99.90
17128;DHT22;8679;50.842;4.322;2023-03-21T13:51:06;14.90;99.90
17128;DHT22;8679;50.842;4.322;2023-03-21T13:53:38;14.90;99.90
17128;DHT22;8679;50.842;4.322;2023-03-21T13:58:50;14.70;99.90
17128;DHT22;8679;50.842;4.322;2023-03-21T14:04:18;14.50;99.90
17128;DHT22;8679;50.842;4.322;2023-03-21T14:07:14;14.50;99.90
17128;DHT22;8679;50.842;4.322;2023-03-21T14:09:46;14.50;99.90
17128;DHT22;8679;50.842;4.322;2023-03-21T14:12:16;14.40;99.90
17128;DHT22;8679;50.842;4.322;2023-03-21T14:14:47;14.30;99.90
17128;DHT22;8679;50.842;4.322;2023-03-21T14:17:21;14.30;99.90
17128;DHT22;8679;50.842;4.322;2023-03-21T14:19:51;14.20;99.90
17128;DHT22;8679;50.842;4.322;2023-03-21T14:22:17;14.20;99.90
17128;DHT22;8679;50.842;4.322;2023-03-21T14:24:48;14.10;99.90
17128;DHT22;8679;50.842;4.322;2023-03-21T14:27:14;14.20;99.90
17128;DHT22;8679;50.842;4.322;2023-03-21T14:29:40;14.10;99.90
17128;DHT22;8679;50.842;4.322;2023-03-21T14:32:13;14.10;99.90
17128;DHT22;8679;50.842;4.322;2023-03-21T14:34:43;14.00;99.90
17128;DHT22;8679;50.842;4.322;2023-03-21T14:37:11;13.90;99.90
17128;DHT22;8679;50.842;4.322;2023-03-21T14:39:36;13.90;99.90
17128;DHT22;8679;50.842;4.322;2023-03-21T14:42:06;13.90;99.90
17128;DHT22;8679;50.842;4.322;2023-03-21T14:47:05;13.70;95.70
17128;DHT22;8679;50.842;4.322;2023-03-21T14:49:35;13.80;96.20
17128;DHT22;8679;50.842;4.322;2023-03-21T14:52:09;13.70;99.90
17128;DHT22;8679;50.842;4.322;2023-03-21T14:54:39;13.70;99.90
17128;DHT22;8679;50.842;4.322;2023-03-21T14:57:14;13.70;99.90
17128;DHT22;8679;50.842;4.322;2023-03-21T14:59:46;13.80;99.90
17128;DHT22;8679;50.842;4.322;2023-03-21T15:02:18;13.90;99.90
17128;DHT22;8679;50.842;4.322;2023-03-21T15:04:47;13.90;99.90
17128;DHT22;8679;50.842;4.322;2023-03-21T15:07:31;13.80;99.90
17128;DHT22;8679;50.842;4.322;2023-03-21T15:10:00;13.80;99.90
17128;DHT22;8679;50.842;4.322;2023-03-21T15:12:28;13.80;99.90
17128;DHT22;8679;50.842;4.322;2023-03-21T15:14:54;13.70;99.90
17128;DHT22;8679;50.842;4.322;2023-03-21T15:17:21;13.60;99.90
17128;DHT22;8679;50.842;4.322;2023-03-21T15:19:47;13.60;99.90
17128;DHT22;8679;50.842;4.322;2023-03-21T15:22:26;13.50;99.90
17128;DHT22;8679;50.842;4.322;2023-03-21T15:24:58;13.50;99.90
17128;DHT22;8679;50.842;4.322;2023-03-21T15:27:24;13.70;99.90
17128;DHT22;8679;50.842;4.322;2023-03-21T15:29:51;13.70;99.90
17128;DHT22;8679;50.842;4.322;2023-03-21T15:32:24;13.70;99.90
17128;DHT22;8679;50.842;4.322;2023-03-21T15:34:55;13.70;99.90
17128;DHT22;8679;50.842;4.322;2023-03-21T15:37:31;13.60;99.90
17128;DHT22;8679;50.842;4.322;2023-03-21T15:42:41;13.50;99.90
17128;DHT22;8679;50.842;4.322;2023-03-21T15:45:17;13.50;99.90
17128;DHT22;8679;50.842;4.322;2023-03-21T15:50:36;13.40;99.90
17128;DHT22;8679;50.842;4.322;2023-03-21T15:53:09;13.30;99.90
17128;DHT22;8679;50.842;4.322;2023-03-21T15:58:12;13.10;99.90
17128;DHT22;8679;50.842;4.322;2023-03-21T16:00:42;13.20;99.90
17128;DHT22;8679;50.842;4.322;2023-03-21T16:03:40;13.20;99.90
17128;DHT22;8679;50.842;4.322;2023-03-21T16:06:20;13.20;99.90
17128;DHT22;8679;50.842;4.322;2023-03-21T16:09:02;13.20;99.90
17128;DHT22;8679;50.842;4.322;2023-03-21T16:11:42;13.20;99.90
17128;DHT22;8679;50.842;4.322;2023-03-21T16:14:08;13.20;99.90
17128;DHT22;8679;50.842;4.322;2023-03-21T16:16:35;13.20;99.90
17128;DHT22;8679;50.842;4.322;2023-03-21T16:19:01;13.30;99.90
17128;DHT22;8679;50.842;4.322;2023-03-21T16:21:29;13.30;99.90
17128;DHT22;8679;50.842;4.322;2023-03-21T16:23:56;13.40;99.90
17128;DHT22;8679;50.842;4.322;2023-03-21T16:26:28;13.40;99.90
17128;DHT22;8679;50.842;4.322;2023-03-21T16:28:55;13.60;99.90
17128;DHT22;8679;50.842;4.322;2023-03-21T16:31:23;14.00;99.90
17128;DHT22;8679;50.842;4.322;2023-03-21T16:33:50;14.70;99.90
17128;DHT22;8679;50.842;4.322;2023-03-21T16:36:23;15.00;99.90
17128;DHT22;8679;50.842;4.322;2023-03-21T16:38:50;16.20;1.00
17128;DHT22;8679;50.842;4.322;2023-03-21T16:41:19;17.20;1.00
17128;DHT22;8679;50.842;4.322;2023-03-21T16:43:45;16.90;1.00
17128;DHT22;8679;50.842;4.322;2023-03-21T16:46:19;16.10;1.00
17128;DHT22;8679;50.842;4.322;2023-03-21T16:48:47;16.30;1.00
17128;DHT22;8679;50.842;4.322;2023-03-21T16:51:20;17.10;1.00
17128;DHT22;8679;50.842;4.322;2023-03-21T16:53:52;16.60;1.00
17128;DHT22;8679;50.842;4.322;2023-03-21T16:56:29;15.60;1.00
17128;DHT22;8679;50.842;4.322;2023-03-21T16:58:57;14.90;1.00
17128;DHT22;8679;50.842;4.322;2023-03-21T17:01:25;14.50;19.10
17128;DHT22;8679;50.842;4.322;2023-03-21T17:03:51;14.30;62.80
17128;DHT22;8679;50.842;4.322;2023-03-21T17:06:20;14.30;91.40
17128;DHT22;8679;50.842;4.322;2023-03-21T17:08:47;14.10;99.90
17128;DHT22;8679;50.842;4.322;2023-03-21T17:11:15;14.20;99.90
17128;DHT22;8679;50.842;4.322;2023-03-21T17:13:42;14.40;85.20
17128;DHT22;8679;50.842;4.322;2023-03-21T17:16:13;14.40;60.80
17128;DHT22;8679;50.842;4.322;2023-03-21T17:18:39;14.30;85.90
17128;DHT22;8679;50.842;4.322;2023-03-21T17:21:34;14.30;63.50
17128;DHT22;8679;50.842;4.322;2023-03-21T17:23:59;14.10;99.90
17128;DHT22;8679;50.842;4.322;2023-03-21T17:26:27;14.00;99.90
17128;DHT22;8679;50.842;4.322;2023-03-21T17:28:54;13.90;99.90
17128;DHT22;8679;50.842;4.322;2023-03-21T17:31:26;13.80;99.90
17128;DHT22;8679;50.842;4.322;2023-03-21T17:33:52;13.80;99.90
17128;DHT22;8679;50.842;4.322;2023-03-21T17:36:38;13.70;99.90
17128;DHT22;8679;50.842;4.322;2023-03-21T17:39:07;13.70;99.90
17128;DHT22;8679;50.842;4.322;2023-03-21T17:41:33;13.70;99.90
17128;DHT22;8679;50.842;4.322;2023-03-21T17:43:59;13.70;99.90
17128;DHT22;8679;50.842;4.322;2023-03-21T17:46:25;13.60;99.90
17128;DHT22;8679;50.842;4.322;2023-03-21T17:48:51;13.60;99.90
17128;DHT22;8679;50.842;4.322;2023-03-21T17:51:17;13.50;99.90